Time;durP1;ratioP1;P1;durP2;ratioP2;P2;SDS_P1;SDS_P2;PMS_P1;PMS_P2;Temp;Humidity;BMP_temperature;BMP_pressure;BME280_temperature;BME280_humidity;BME280_pressure;Samples;Min_cycle;Max_cycle;Signal;HPM_P1;HPM_P2
2022/03/09 00:02:02;;;;;;;8.05;4.05;;;2.80;98.30;;;;;;5051031;28;20119;-75
2022/03/09 00:04:29;;;;;;;7.53;4.47;;;2.70;98.40;;;;;;5034376;28;20507;-76
2022/03/09 00:06:54;;;;;;;8.98;4.35;;;2.70;98.40;;;;;;5051174;28;20047;-76
2022/03/09 00:09:20;;;;;;;9.60;4.60;;;2.70;98.50;;;;;;5050681;28;20036;-76
2022/03/09 00:11:45;;;;;;;7.15;4.20;;;2.60;98.70;;;;;;5050462;28;20075;-76
2022/03/09 00:14:11;;;;;;;6.43;4.10;;;2.50;98.90;;;;;;5050461;28;20118;-76
2022/03/09 00:16:36;;;;;;;11.18;3.88;;;2.40;99.20;;;;;;5050602;28;20381;-76
2022/03/09 00:19:02;;;;;;;8.90;4.13;;;2.40;99.30;;;;;;5050706;28;20045;-76
2022/03/09 00:21:28;;;;;;;10.25;4.07;;;2.30;99.60;;;;;;5033687;28;20037;-76
2022/03/09 00:23:53;;;;;;;8.73;4.40;;;2.30;99.90;;;;;;5050425;28;20048;-76
2022/03/09 00:26:19;;;;;;;8.00;3.80;;;2.20;99.90;;;;;;5050958;28;20419;-76
2022/03/09 00:28:44;;;;;;;7.05;4.05;;;2.10;99.90;;;;;;5050313;28;20037;-76
2022/03/09 00:31:10;;;;;;;8.95;4.25;;;2.10;99.90;;;;;;5050005;28;20049;-76
2022/03/09 00:33:35;;;;;;;9.50;4.22;;;2.00;99.90;;;;;;5050336;28;20045;-76
2022/03/09 00:36:01;;;;;;;10.10;4.60;;;1.80;99.90;;;;;;5050328;28;20060;-76
2022/03/09 00:38:27;;;;;;;7.25;4.05;;;1.70;99.90;;;;;;5050352;28;20044;-76
2022/03/09 00:40:53;;;;;;;11.50;5.22;;;1.50;99.90;;;;;;5050343;28;20550;-76
2022/03/09 00:43:19;;;;;;;9.65;4.13;;;1.50;99.90;;;;;;5050267;28;20045;-76
2022/03/09 00:45:44;;;;;;;8.20;4.47;;;1.40;99.90;;;;;;5050032;28;20048;-76
2022/03/09 00:48:10;;;;;;;9.30;5.07;;;1.40;99.90;;;;;;5050071;28;20051;-76
2022/03/09 00:50:35;;;;;;;7.85;3.85;;;1.30;99.90;;;;;;5049488;28;20495;-76
2022/03/09 00:53:01;;;;;;;9.40;4.38;;;1.20;99.90;;;;;;5050129;28;20052;-78
2022/03/09 00:55:27;;;;;;;8.65;4.57;;;1.10;99.90;;;;;;5050200;28;20564;-79
2022/03/09 00:57:52;;;;;;;8.68;4.85;;;1.10;99.90;;;;;;5049933;28;20041;-78
2022/03/09 01:00:18;;;;;;;6.20;4.07;;;1.00;99.90;;;;;;5049679;28;20052;-78
2022/03/09 01:02:45;;;;;;;9.27;4.53;;;0.90;99.90;;;;;;5049814;28;20052;-78
2022/03/09 01:05:12;;;;;;;9.32;5.00;;;0.90;99.90;;;;;;5049675;28;20052;-79
2022/03/09 01:07:38;;;;;;;14.85;5.20;;;0.80;99.90;;;;;;5049711;28;20044;-78
2022/03/09 01:10:04;;;;;;;8.50;4.47;;;0.90;99.90;;;;;;5049256;28;20114;-78
2022/03/09 01:12:30;;;;;;;8.65;4.63;;;0.80;99.90;;;;;;5049879;28;20084;-78
2022/03/09 01:14:56;;;;;;;9.45;4.78;;;0.70;99.90;;;;;;5049821;28;20077;-78
2022/03/09 01:17:21;;;;;;;8.57;4.15;;;0.70;99.90;;;;;;5049533;28;20095;-78
2022/03/09 01:19:47;;;;;;;8.48;4.60;;;0.70;99.90;;;;;;5049635;28;20076;-79
2022/03/09 01:22:12;;;;;;;7.78;4.53;;;0.70;99.90;;;;;;5049778;28;20344;-79
2022/03/09 01:24:38;;;;;;;8.63;4.43;;;0.70;99.90;;;;;;5049302;28;20087;-79
2022/03/09 01:27:03;;;;;;;13.68;5.10;;;0.70;99.90;;;;;;5049149;28;20464;-79
2022/03/09 01:29:29;;;;;;;8.52;5.32;;;0.70;99.90;;;;;;5049095;28;20045;-80
2022/03/09 01:31:54;;;;;;;10.05;4.60;;;0.70;99.90;;;;;;5049493;28;20045;-79
2022/03/09 01:34:20;;;;;;;8.23;4.50;;;0.70;99.90;;;;;;5049665;28;20044;-79
2022/03/09 01:36:46;;;;;;;8.93;4.90;;;0.60;99.90;;;;;;5050038;28;20542;-79
2022/03/09 01:39:11;;;;;;;8.55;4.88;;;0.60;99.90;;;;;;5049313;28;20077;-79
2022/03/09 01:41:37;;;;;;;8.50;4.70;;;0.50;99.90;;;;;;5048774;28;20044;-78
2022/03/09 01:44:15;;;;;;;10.63;4.50;;;0.40;99.90;;;;;;5049312;28;20052;-78
2022/03/09 01:46:42;;;;;;;14.18;4.38;;;0.30;99.90;;;;;;5049139;28;20041;-79
2022/03/09 01:49:08;;;;;;;8.20;5.45;;;0.20;99.90;;;;;;5049198;28;20565;-79
2022/03/09 01:51:40;;;;;;;9.60;4.90;;;0.20;99.90;;;;;;5049183;28;20041;-79
2022/03/09 01:54:06;;;;;;;12.52;4.70;;;0.20;99.90;;;;;;5049800;28;20442;-79
2022/03/09 01:56:33;;;;;;;11.68;5.03;;;0.20;99.90;;;;;;5048960;28;20036;-79
2022/03/09 01:59:02;;;;;;;11.13;4.28;;;0.20;99.90;;;;;;5048884;28;20056;-79
2022/03/09 02:01:28;;;;;;;12.02;4.85;;;0.10;99.90;;;;;;5049752;28;20048;-79
2022/03/09 02:03:53;;;;;;;11.27;5.13;;;0.10;99.90;;;;;;5054416;28;20400;-79
2022/03/09 02:06:19;;;;;;;8.60;4.72;;;0.00;99.90;;;;;;5053279;28;20053;-79
2022/03/09 02:11:32;;;;;;;11.02;5.07;;;-0.10;99.90;;;;;;5053012;28;20047;-79
2022/03/09 02:13:57;;;;;;;10.50;5.20;;;-0.10;99.90;;;;;;5053169;28;20470;-79
2022/03/09 02:16:23;;;;;;;10.35;5.07;;;-0.10;99.90;;;;;;5052751;28;20115;-79
2022/03/09 02:18:49;;;;;;;15.98;5.43;;;0.00;99.90;;;;;;5053012;28;20073;-78
2022/03/09 02:21:16;;;;;;;10.77;4.93;;;0.00;99.90;;;;;;5052449;28;20473;-79
2022/03/09 02:23:42;;;;;;;10.23;4.43;;;0.00;99.90;;;;;;5052698;28;20048;-79
2022/03/09 02:26:07;;;;;;;10.10;4.93;;;0.00;99.90;;;;;;5054224;28;20056;-78
2022/03/09 02:28:38;;;;;;;9.77;4.70;;;0.00;99.90;;;;;;5052869;28;20041;-79
2022/03/09 02:31:04;;;;;;;12.18;4.75;;;0.00;99.90;;;;;;5052825;28;20044;-78
2022/03/09 02:33:30;;;;;;;8.35;4.72;;;0.10;99.90;;;;;;5052689;28;20052;-78
2022/03/09 02:35:55;;;;;;;10.20;4.38;;;0.10;99.90;;;;;;5052536;28;20048;-79
2022/03/09 02:38:21;;;;;;;7.97;4.75;;;0.10;99.90;;;;;;5052789;28;20044;-79
2022/03/09 02:40:46;;;;;;;14.27;5.30;;;0.10;99.90;;;;;;5052190;28;20056;-78
2022/03/09 02:43:12;;;;;;;10.27;4.90;;;0.20;99.90;;;;;;5052659;28;20040;-79
2022/03/09 02:45:38;;;;;;;10.07;4.45;;;0.30;99.90;;;;;;5052962;28;20124;-78
2022/03/09 02:48:03;;;;;;;8.52;4.45;;;0.10;99.90;;;;;;5052938;28;20041;-79
2022/03/09 02:50:29;;;;;;;10.50;5.40;;;0.10;99.90;;;;;;5052019;28;20076;-79
2022/03/09 02:52:55;;;;;;;10.65;4.72;;;0.00;99.90;;;;;;5052376;28;20142;-79
2022/03/09 02:55:20;;;;;;;12.80;5.72;;;-0.10;99.90;;;;;;5052363;28;20045;-79
2022/03/09 02:57:46;;;;;;;11.43;5.15;;;-0.20;99.90;;;;;;5052539;28;20078;-78
2022/03/09 03:00:12;;;;;;;10.60;5.15;;;-0.20;99.90;;;;;;5052387;28;20051;-78
2022/03/09 03:02:39;;;;;;;12.13;5.22;;;-0.20;99.90;;;;;;5052148;28;20051;-78
2022/03/09 03:05:06;;;;;;;12.88;6.00;;;-0.20;99.90;;;;;;5052211;28;20071;-78
2022/03/09 03:07:32;;;;;;;10.57;5.68;;;-0.20;99.90;;;;;;5052275;28;20090;-78
2022/03/09 03:09:58;;;;;;;9.20;4.97;;;-0.20;99.90;;;;;;5051866;28;20041;-79
2022/03/09 03:12:24;;;;;;;12.50;5.70;;;-0.20;99.90;;;;;;5051835;28;20048;-76
2022/03/09 03:14:49;;;;;;;10.80;4.55;;;-0.30;99.90;;;;;;5051666;28;20105;-75
2022/03/09 03:17:15;;;;;;;12.63;5.82;;;-0.30;99.90;;;;;;5052175;28;20562;-75
2022/03/09 03:19:40;;;;;;;12.38;5.75;;;-0.30;99.90;;;;;;5051811;28;20044;-75
2022/03/09 03:22:06;;;;;;;9.15;4.60;;;-0.30;99.90;;;;;;5053085;28;20124;-76
2022/03/09 03:24:32;;;;;;;11.80;4.97;;;-0.30;99.90;;;;;;5051916;28;20052;-75
2022/03/09 03:26:57;;;;;;;9.68;5.10;;;-0.30;99.90;;;;;;5051873;28;20087;-76
2022/03/09 03:29:23;;;;;;;6.57;4.20;;;-0.40;99.90;;;;;;5051404;28;20045;-75
2022/03/09 03:31:48;;;;;;;12.57;6.03;;;-0.40;99.90;;;;;;5051282;28;20236;-76
2022/03/09 03:34:14;;;;;;;8.75;5.15;;;-0.40;99.90;;;;;;5051331;28;20041;-75
2022/03/09 03:36:40;;;;;;;12.85;5.95;;;-0.40;99.90;;;;;;5051435;28;20400;-75
2022/03/09 03:39:05;;;;;;;11.48;4.97;;;-0.40;99.90;;;;;;5053055;28;20037;-75
2022/03/09 03:41:31;;;;;;;12.85;6.38;;;-0.40;99.90;;;;;;5051471;28;20044;-76
2022/03/09 03:43:56;;;;;;;11.25;5.65;;;-0.30;99.90;;;;;;5051116;28;20041;-75
2022/03/09 03:46:22;;;;;;;9.82;5.10;;;-0.30;99.90;;;;;;5051150;28;20041;-75
2022/03/09 03:48:47;;;;;;;9.85;5.50;;;-0.30;99.90;;;;;;5050894;28;20044;-76
2022/03/09 03:51:13;;;;;;;12.15;5.85;;;-0.30;99.90;;;;;;5050920;28;20068;-76
2022/03/09 03:53:39;;;;;;;13.48;5.47;;;-0.20;99.90;;;;;;5051487;28;20049;-76
2022/03/09 03:56:05;;;;;;;10.88;5.90;;;-0.30;99.90;;;;;;5051651;28;20041;-76
2022/03/09 03:58:31;;;;;;;14.95;7.07;;;-0.30;99.90;;;;;;5051511;28;20047;-76
2022/03/09 04:00:56;;;;;;;12.27;5.68;;;-0.30;99.90;;;;;;5051089;28;20045;-75
2022/03/09 04:03:22;;;;;;;13.63;7.05;;;-0.30;99.90;;;;;;5050592;28;20079;-75
2022/03/09 04:05:47;;;;;;;12.02;6.00;;;-0.30;99.90;;;;;;5051111;28;20098;-75
2022/03/09 04:08:13;;;;;;;9.95;5.60;;;-0.30;99.90;;;;;;5051168;28;20040;-75
2022/03/09 04:10:38;;;;;;;11.07;6.15;;;-0.30;99.90;;;;;;5050789;28;20140;-75
2022/03/09 04:13:04;;;;;;;9.85;5.30;;;-0.40;99.90;;;;;;5050912;28;20120;-75
2022/03/09 04:15:31;;;;;;;10.63;5.72;;;-0.40;99.90;;;;;;5050843;28;20041;-75
2022/03/09 04:17:57;;;;;;;11.73;5.50;;;-0.40;99.90;;;;;;5050956;28;20056;-75
2022/03/09 04:20:23;;;;;;;8.90;5.32;;;-0.40;99.90;;;;;;5050425;28;20045;-76
2022/03/09 04:22:48;;;;;;;12.00;6.32;;;-0.50;99.90;;;;;;5050237;28;20041;-75
2022/03/09 04:25:15;;;;;;;10.18;5.40;;;-0.50;99.90;;;;;;5050045;28;20185;-75
2022/03/09 04:27:40;;;;;;;12.50;5.97;;;-0.60;99.90;;;;;;5050901;28;20110;-75
2022/03/09 04:30:07;;;;;;;14.10;6.45;;;-0.60;99.90;;;;;;5050180;28;20514;-75
2022/03/09 04:32:34;;;;;;;11.95;5.38;;;-0.70;99.90;;;;;;5050480;28;20071;-76
2022/03/09 04:35:00;;;;;;;13.93;6.45;;;-0.70;99.90;;;;;;5050592;28;20504;-75
2022/03/09 04:37:30;;;;;;;15.15;5.63;;;-0.60;99.90;;;;;;5050377;28;20567;-75
2022/03/09 04:39:59;;;;;;;13.32;6.38;;;-0.70;99.90;;;;;;5050349;28;20128;-75
2022/03/09 04:42:26;;;;;;;12.73;6.43;;;-0.70;99.90;;;;;;5033580;28;20439;-75
2022/03/09 04:44:51;;;;;;;10.90;5.97;;;-0.70;99.90;;;;;;5050175;28;20484;-76
2022/03/09 04:47:17;;;;;;;10.23;5.43;;;-0.80;99.90;;;;;;5050337;28;20041;-76
2022/03/09 04:49:42;;;;;;;12.02;5.47;;;-0.80;99.90;;;;;;5051353;28;20487;-76
2022/03/09 04:52:08;;;;;;;9.93;5.50;;;-0.80;99.90;;;;;;5050368;28;20080;-76
2022/03/09 04:54:34;;;;;;;11.65;5.53;;;-0.90;99.90;;;;;;5049882;28;20037;-79
2022/03/09 04:56:59;;;;;;;10.73;6.32;;;-0.90;99.90;;;;;;5050252;28;20044;-79
2022/03/09 04:59:25;;;;;;;10.70;6.03;;;-1.00;99.90;;;;;;5050171;28;20495;-79
2022/03/09 05:01:50;;;;;;;13.10;6.30;;;-1.10;99.90;;;;;;5050233;28;20294;-79
2022/03/09 05:04:16;;;;;;;11.90;5.78;;;-1.00;99.90;;;;;;5050393;28;20559;-79
2022/03/09 05:06:42;;;;;;;14.10;6.22;;;-1.00;99.90;;;;;;5050622;28;20048;-79
2022/03/09 05:09:07;;;;;;;14.10;6.22;;;-1.00;99.90;;;;;;5050554;28;20036;-76
2022/03/09 05:11:33;;;;;;;16.20;5.93;;;-0.90;99.90;;;;;;5049728;28;20447;-76
2022/03/09 05:13:58;;;;;;;10.48;5.22;;;-1.00;99.90;;;;;;5049386;28;20120;-77
2022/03/09 05:16:24;;;;;;;10.75;5.85;;;-1.00;99.90;;;;;;5049675;28;20045;-76
2022/03/09 05:18:49;;;;;;;14.77;7.32;;;-1.10;99.90;;;;;;5049406;28;20059;-76
2022/03/09 05:21:15;;;;;;;17.63;6.60;;;-1.10;99.90;;;;;;5049238;28;20400;-77
2022/03/09 05:23:40;;;;;;;15.52;6.03;;;-1.10;99.90;;;;;;5050489;28;20044;-76
2022/03/09 05:26:06;;;;;;;11.90;6.68;;;-1.10;99.90;;;;;;5049526;28;20048;-77
2022/03/09 05:28:31;;;;;;;17.52;6.90;;;-1.10;99.90;;;;;;5049748;28;20451;-76
2022/03/09 05:30:57;;;;;;;12.20;6.70;;;-1.10;99.90;;;;;;5049089;28;20466;-76
2022/03/09 05:33:22;;;;;;;12.45;6.35;;;-1.00;99.90;;;;;;5049300;28;20075;-76
2022/03/09 05:35:48;;;;;;;13.73;6.32;;;-1.00;99.90;;;;;;5048764;28;20075;-76
2022/03/09 05:38:14;;;;;;;11.63;6.05;;;-1.00;99.90;;;;;;5050355;28;20396;-76
2022/03/09 05:40:40;;;;;;;10.23;6.43;;;-0.90;99.90;;;;;;5049039;28;20049;-76
2022/03/09 05:43:06;;;;;;;10.02;6.50;;;-0.90;99.90;;;;;;5050477;28;20039;-79
2022/03/09 05:45:31;;;;;;;11.98;6.40;;;-1.00;99.90;;;;;;5054134;28;20121;-80
2022/03/09 05:47:57;;;;;;;13.63;6.15;;;-1.00;99.90;;;;;;5052536;28;20043;-79
2022/03/09 05:50:22;;;;;;;16.58;6.82;;;-1.00;99.90;;;;;;5055807;28;20049;-80
2022/03/09 05:52:48;;;;;;;10.93;5.93;;;-0.90;99.90;;;;;;5054513;28;20116;-79
2022/03/09 05:55:14;;;;;;;14.50;7.00;;;-0.90;99.90;;;;;;5050294;28;20484;-80
2022/03/09 05:57:39;;;;;;;14.93;6.50;;;-0.90;99.90;;;;;;5054775;28;20052;-80
2022/03/09 06:00:06;;;;;;;12.48;6.93;;;-0.90;99.90;;;;;;5054189;28;20458;-80
2022/03/09 06:02:32;;;;;;;12.73;6.72;;;-1.00;99.90;;;;;;5055309;28;20048;-81
2022/03/09 06:04:58;;;;;;;80.13;31.00;;;-1.00;99.90;;;;;;5050868;28;20045;-82
2022/03/09 06:07:23;;;;;;;21.17;8.80;;;-1.10;99.90;;;;;;5067193;28;20037;-82
2022/03/09 06:09:49;;;;;;;24.10;11.05;;;-1.10;99.90;;;;;;5051402;28;20057;-82
2022/03/09 06:12:15;;;;;;;11.98;7.18;;;-1.10;99.90;;;;;;5051131;28;20047;-81
2022/03/09 06:14:41;;;;;;;14.30;6.78;;;-1.10;99.90;;;;;;5051061;28;20045;-83
2022/03/09 06:17:06;;;;;;;11.70;6.38;;;-1.00;99.90;;;;;;5051132;28;20049;-82
2022/03/09 06:19:32;;;;;;;14.32;6.05;;;-1.00;99.90;;;;;;5051246;28;20491;-84
2022/03/09 06:21:58;;;;;;;21.98;7.97;;;-1.10;99.90;;;;;;5045632;28;20045;-80
2022/03/09 06:24:23;;;;;;;39.13;14.88;;;-1.10;99.90;;;;;;5036621;28;20385;-80
2022/03/09 06:26:49;;;;;;;17.33;8.00;;;-1.10;99.90;;;;;;5061614;28;20040;-82
2022/03/09 06:29:15;;;;;;;13.13;7.15;;;-1.10;99.90;;;;;;5047368;28;20048;-80
2022/03/09 06:31:44;;;;;;;16.10;6.35;;;-1.20;99.90;;;;;;5044273;28;20033;-81
2022/03/09 06:34:10;;;;;;;15.90;6.68;;;-1.10;99.90;;;;;;5060233;28;20033;-82
2022/03/09 06:36:37;;;;;;;15.02;7.13;;;-1.10;99.90;;;;;;5058518;28;20064;-79
2022/03/09 06:39:03;;;;;;;33.03;15.88;;;-1.10;99.90;;;;;;5049887;28;20049;-79
2022/03/09 06:41:29;;;;;;;35.28;15.68;;;-1.10;99.90;;;;;;5050094;28;20057;-78
2022/03/09 06:43:54;;;;;;;90.60;34.97;;;-1.00;99.90;;;;;;5051051;28;20089;-79
2022/03/09 06:46:22;;;;;;;26.10;11.45;;;-0.90;99.90;;;;;;5054695;28;20045;-82
2022/03/09 06:48:48;;;;;;;23.60;9.20;;;-0.80;99.90;;;;;;5050933;28;20036;-82
2022/03/09 06:51:13;;;;;;;22.20;10.35;;;-0.70;99.90;;;;;;5048776;28;20596;-81
2022/03/09 06:53:39;;;;;;;18.83;8.40;;;-0.60;99.90;;;;;;5062323;28;20053;-81
2022/03/09 06:56:04;;;;;;;17.05;8.45;;;-0.60;99.90;;;;;;5042334;28;20199;-81
2022/03/09 06:58:30;;;;;;;18.13;8.15;;;-0.40;99.90;;;;;;5046367;28;20049;-79
2022/03/09 07:00:57;;;;;;;17.08;7.35;;;-0.40;99.90;;;;;;5053391;28;20040;-79
2022/03/09 07:03:22;;;;;;;17.88;8.32;;;-0.30;99.90;;;;;;5038006;28;20029;-81
2022/03/09 07:05:48;;;;;;;15.35;7.00;;;-0.20;99.90;;;;;;5056528;28;20040;-81
2022/03/09 07:08:14;;;;;;;15.68;6.32;;;0.00;99.90;;;;;;5056641;28;20509;-82
2022/03/09 07:10:40;;;;;;;12.65;7.07;;;0.00;99.90;;;;;;5055459;28;20041;-81
2022/03/09 07:13:05;;;;;;;10.45;6.28;;;0.20;99.90;;;;;;5038719;28;20052;-81
2022/03/09 07:15:31;;;;;;;15.20;7.32;;;0.30;99.90;;;;;;5037957;28;20376;-82
2022/03/09 07:17:57;;;;;;;14.23;6.47;;;0.40;99.90;;;;;;5055263;28;20037;-82
2022/03/09 07:20:23;;;;;;;12.75;6.22;;;0.50;99.90;;;;;;5054822;28;20124;-82
2022/03/09 07:22:48;;;;;;;16.55;5.50;;;0.70;99.90;;;;;;5037779;28;20072;-82
2022/03/09 07:25:14;;;;;;;12.63;6.03;;;1.00;99.90;;;;;;5054538;28;20037;-82
2022/03/09 07:27:41;;;;;;;13.15;6.22;;;1.10;99.90;;;;;;5054460;28;20041;-82
2022/03/09 07:30:08;;;;;;;17.15;6.32;;;1.40;99.90;;;;;;5054389;28;20423;-82
2022/03/09 07:32:33;;;;;;;13.20;5.07;;;1.90;99.90;;;;;;5054485;28;20037;-83
2022/03/09 07:34:59;;;;;;;12.40;5.82;;;2.50;99.90;;;;;;5037125;28;20098;-81
2022/03/09 07:37:25;;;;;;;14.65;6.10;;;3.20;99.90;;;;;;5053010;28;20047;-81
2022/03/09 07:39:50;;;;;;;15.55;6.90;;;3.90;99.90;;;;;;5052064;28;20044;-78
2022/03/09 07:42:16;;;;;;;14.25;6.70;;;4.50;99.90;;;;;;5052348;28;20446;-79
2022/03/09 07:44:41;;;;;;;12.88;6.03;;;5.00;99.90;;;;;;5052034;28;20049;-79
2022/03/09 07:47:08;;;;;;;9.32;5.85;;;5.60;99.90;;;;;;5052097;28;20045;-79
2022/03/09 07:49:33;;;;;;;9.73;5.45;;;6.10;99.90;;;;;;5052469;28;20037;-79
2022/03/09 07:52:03;;;;;;;10.82;5.75;;;6.50;99.90;;;;;;5052719;28;20137;-79
2022/03/09 07:54:28;;;;;;;10.73;5.20;;;6.60;99.90;;;;;;5053148;28;20135;-79
2022/03/09 07:56:55;;;;;;;8.57;5.18;;;6.60;99.90;;;;;;5052174;28;20124;-79
2022/03/09 07:59:21;;;;;;;11.27;5.60;;;6.70;99.90;;;;;;5053297;28;20052;-79
2022/03/09 08:01:52;;;;;;;11.68;5.72;;;6.70;99.90;;;;;;5052775;28;20404;-79
2022/03/09 08:04:18;;;;;;;12.13;5.68;;;6.50;98.80;;;;;;5054655;28;20126;-79
2022/03/09 08:06:44;;;;;;;9.57;5.47;;;6.40;98.60;;;;;;5037997;28;20053;-79
2022/03/09 08:09:10;;;;;;;7.40;4.95;;;6.20;97.40;;;;;;5052853;28;20072;-79
2022/03/09 08:11:36;;;;;;;10.18;4.93;;;6.10;93.90;;;;;;5055262;28;20033;-79
2022/03/09 08:14:01;;;;;;;7.60;5.07;;;6.00;95.20;;;;;;5053084;28;20128;-79
2022/03/09 08:16:27;;;;;;;8.32;4.85;;;6.00;91.60;;;;;;5052760;28;20056;-79
2022/03/09 08:18:52;;;;;;;10.70;5.50;;;6.20;92.50;;;;;;5036652;28;20087;-79
2022/03/09 08:21:18;;;;;;;9.75;6.00;;;6.20;90.50;;;;;;5052013;28;20045;-79
2022/03/09 08:23:43;;;;;;;7.60;4.95;;;6.30;88.80;;;;;;5035293;28;20399;-79
2022/03/09 08:26:09;;;;;;;16.77;5.50;;;6.20;87.30;;;;;;5052324;28;20103;-79
2022/03/09 08:28:35;;;;;;;10.68;5.30;;;6.30;86.70;;;;;;5052952;28;20068;-79
2022/03/09 08:31:01;;;;;;;8.85;5.30;;;6.30;84.40;;;;;;5051856;28;20037;-79
2022/03/09 08:33:26;;;;;;;12.57;5.75;;;6.40;85.30;;;;;;5051563;28;20615;-79
2022/03/09 08:35:55;;;;;;;10.32;4.97;;;6.40;84.40;;;;;;5051888;28;20041;-79
2022/03/09 08:38:21;;;;;;;9.60;5.55;;;6.50;82.10;;;;;;5035008;28;20099;-79
2022/03/09 08:40:46;;;;;;;9.85;5.15;;;6.70;80.10;;;;;;5051675;28;20500;-79
2022/03/09 08:43:12;;;;;;;10.88;5.00;;;6.80;79.10;;;;;;5051827;28;20380;-79
2022/03/09 08:45:38;;;;;;;14.23;7.35;;;7.00;77.50;;;;;;5053095;28;20044;-79
2022/03/09 08:48:05;;;;;;;8.43;5.10;;;7.20;76.80;;;;;;5035114;28;20109;-79
2022/03/09 08:50:31;;;;;;;13.32;5.10;;;7.40;76.20;;;;;;5051721;28;20112;-79
2022/03/09 08:52:56;;;;;;;9.50;5.25;;;7.50;74.70;;;;;;5052380;28;20123;-79
2022/03/09 08:55:22;;;;;;;7.43;4.82;;;7.60;72.90;;;;;;5053090;28;20633;-79
2022/03/09 08:57:48;;;;;;;11.88;5.43;;;7.60;71.80;;;;;;5053128;28;20132;-79
2022/03/09 09:00:14;;;;;;;11.30;5.85;;;7.50;72.70;;;;;;5051578;28;20052;-79
2022/03/09 09:02:39;;;;;;;13.32;5.85;;;7.70;71.40;;;;;;5035610;28;20037;-80
2022/03/09 09:05:06;;;;;;;9.50;5.18;;;7.70;71.60;;;;;;5037343;28;20049;-79
2022/03/09 09:07:31;;;;;;;10.20;6.10;;;7.70;70.00;;;;;;5052112;28;20597;-80
2022/03/09 09:09:57;;;;;;;12.23;5.50;;;7.70;70.40;;;;;;5051856;28;20084;-79
2022/03/09 09:12:23;;;;;;;7.47;4.88;;;7.80;70.90;;;;;;5052265;28;20043;-80
2022/03/09 09:14:48;;;;;;;8.05;5.00;;;8.00;71.00;;;;;;5051981;28;20102;-79
2022/03/09 09:17:14;;;;;;;9.98;4.72;;;8.10;69.90;;;;;;5051955;28;20048;-79
2022/03/09 09:19:40;;;;;;;9.57;5.05;;;8.10;70.10;;;;;;5035463;28;20115;-79
2022/03/09 09:22:06;;;;;;;10.95;5.55;;;8.30;69.80;;;;;;5051608;28;20495;-79
2022/03/09 09:24:31;;;;;;;9.38;4.95;;;8.40;68.70;;;;;;5051645;28;20136;-79
2022/03/09 09:26:57;;;;;;;11.88;5.43;;;8.70;67.20;;;;;;5052346;28;20175;-79
2022/03/09 09:29:23;;;;;;;11.30;5.68;;;8.90;65.20;;;;;;5052433;28;20047;-80
2022/03/09 09:31:49;;;;;;;9.85;4.95;;;8.90;64.10;;;;;;5035430;28;20048;-79
2022/03/09 09:34:16;;;;;;;9.05;5.13;;;8.90;61.80;;;;;;5034648;28;20048;-79
2022/03/09 09:36:45;;;;;;;9.68;5.57;;;9.00;62.40;;;;;;5051928;28;20529;-79
2022/03/09 09:39:13;;;;;;;10.48;5.80;;;9.20;61.00;;;;;;5052919;28;20424;-79
2022/03/09 09:41:43;;;;;;;10.65;5.35;;;9.50;60.90;;;;;;5052001;28;20045;-80
2022/03/09 09:44:13;;;;;;;8.32;5.50;;;9.90;59.40;;;;;;5052078;28;20435;-79
2022/03/09 09:46:40;;;;;;;11.35;5.80;;;10.00;55.80;;;;;;5052487;28;20045;-79
2022/03/09 09:49:08;;;;;;;9.57;4.85;;;10.20;57.90;;;;;;5051978;28;20045;-81
2022/03/09 09:51:37;;;;;;;7.35;5.28;;;10.40;57.00;;;;;;5033454;28;20032;-81
2022/03/09 09:54:05;;;;;;;9.30;5.65;;;10.80;57.30;;;;;;5050369;28;20080;-82
2022/03/09 09:56:34;;;;;;;11.52;5.45;;;11.20;55.90;;;;;;5050449;28;20048;-81
2022/03/09 09:59:00;;;;;;;11.25;4.93;;;11.60;54.10;;;;;;5051618;28;20048;-81
2022/03/09 10:01:26;;;;;;;10.88;6.55;;;11.80;54.90;;;;;;5050268;28;20495;-81
2022/03/09 10:03:52;;;;;;;10.07;6.63;;;11.90;54.00;;;;;;5051085;28;20481;-81
2022/03/09 10:06:17;;;;;;;11.75;5.53;;;12.00;53.60;;;;;;5051417;28;20491;-81
2022/03/09 10:09:03;;;;;;;8.00;5.18;;;12.10;53.30;;;;;;5051970;28;20043;-81
2022/03/09 10:11:52;;;;;;;9.55;5.28;;;12.30;49.50;;;;;;5051046;28;20045;-82
2022/03/09 10:14:37;;;;;;;12.07;5.88;;;12.40;49.30;;;;;;5050738;28;20033;-81
2022/03/09 10:17:08;;;;;;;9.57;5.55;;;12.50;52.70;;;;;;5037523;28;20037;-84
2022/03/09 10:19:36;;;;;;;8.88;5.72;;;12.40;51.80;;;;;;5040060;28;20037;-79
2022/03/09 10:22:26;;;;;;;10.18;5.55;;;12.10;52.30;;;;;;5057349;28;20053;-81
2022/03/09 10:24:53;;;;;;;12.48;5.57;;;12.00;50.30;;;;;;5058496;28;20102;-81
2022/03/09 10:27:40;;;;;;;8.30;5.78;;;11.80;52.70;;;;;;5056607;28;20033;-83
2022/03/09 10:30:15;;;;;;;9.27;5.90;;;11.60;51.30;;;;;;5056530;28;20029;-81
2022/03/09 10:32:46;;;;;;;9.93;5.47;;;11.30;53.40;;;;;;5059519;28;20052;-79
2022/03/09 10:35:14;;;;;;;10.40;6.87;;;11.10;54.40;;;;;;5057181;28;20049;-81
2022/03/09 10:37:41;;;;;;;10.77;6.35;;;11.00;54.80;;;;;;5056976;28;20431;-81
2022/03/09 10:40:17;;;;;;;8.38;5.53;;;10.90;55.00;;;;;;5061676;28;20053;-81
2022/03/09 10:42:43;;;;;;;11.95;5.50;;;10.90;54.30;;;;;;5057989;28;20033;-81
2022/03/09 10:45:11;;;;;;;8.90;5.47;;;10.80;55.30;;;;;;5059818;28;20037;-81
2022/03/09 10:47:42;;;;;;;12.82;6.32;;;10.80;55.00;;;;;;5061030;28;20448;-81
2022/03/09 10:50:12;;;;;;;11.48;6.40;;;10.80;55.10;;;;;;5057245;28;20051;-81
2022/03/09 10:52:46;;;;;;;12.35;6.10;;;10.70;55.10;;;;;;5055998;28;20055;-82
2022/03/09 10:55:29;;;;;;;11.95;5.88;;;10.70;54.30;;;;;;5057523;28;20506;-84
2022/03/09 10:58:16;;;;;;;11.60;6.40;;;10.70;53.40;;;;;;5057236;28;20049;-84
2022/03/09 11:00:53;;;;;;;11.32;6.10;;;10.70;52.70;;;;;;5055916;28;20526;-81
2022/03/09 11:03:20;;;;;;;12.25;6.32;;;10.80;54.40;;;;;;5059715;28;20037;-79
2022/03/09 11:05:52;;;;;;;9.60;6.00;;;10.80;54.00;;;;;;5059521;28;20041;-84
2022/03/09 11:08:20;;;;;;;10.57;6.32;;;10.80;53.60;;;;;;5057636;28;20055;-84
2022/03/09 11:10:46;;;;;;;11.52;6.75;;;10.80;54.10;;;;;;5054584;28;20071;-81
2022/03/09 11:13:13;;;;;;;12.05;6.40;;;10.80;54.00;;;;;;5043081;28;20407;-79
2022/03/09 11:15:42;;;;;;;15.05;5.80;;;10.80;53.80;;;;;;5048122;28;20075;-79
2022/03/09 11:18:13;;;;;;;11.55;6.70;;;10.80;54.00;;;;;;5062743;28;20531;-81
2022/03/09 11:20:39;;;;;;;9.98;5.57;;;10.90;53.50;;;;;;5058601;28;20045;-81
2022/03/09 11:23:05;;;;;;;13.93;6.20;;;10.90;53.30;;;;;;5066817;28;20099;-80
2022/03/09 11:25:31;;;;;;;16.98;6.68;;;10.90;53.20;;;;;;5057215;28;20446;-81
2022/03/09 11:27:57;;;;;;;13.50;6.57;;;10.90;52.70;;;;;;5036104;28;20037;-79
2022/03/09 11:30:28;;;;;;;10.82;6.72;;;11.00;52.80;;;;;;5055267;28;20045;-81
2022/03/09 11:32:57;;;;;;;12.68;7.20;;;11.00;52.80;;;;;;5056202;28;20134;-80
2022/03/09 11:35:38;;;;;;;13.55;6.43;;;11.10;52.80;;;;;;5056504;28;20041;-80
2022/03/09 11:38:32;;;;;;;12.63;6.57;;;11.10;50.90;;;;;;5052315;28;20040;-79
2022/03/09 11:41:16;;;;;;;11.60;6.47;;;11.00;50.10;;;;;;5064609;28;20044;-81
2022/03/09 11:43:42;;;;;;;10.00;5.78;;;11.00;51.50;;;;;;5057504;28;20033;-83
2022/03/09 11:46:07;;;;;;;11.82;6.32;;;11.10;52.10;;;;;;5056598;28;20128;-81
2022/03/09 11:48:58;;;;;;;11.55;6.53;;;11.30;52.40;;;;;;5059045;28;20207;-84
2022/03/09 11:51:26;;;;;;;12.52;6.68;;;11.50;50.80;;;;;;5059403;28;20598;-81
2022/03/09 11:53:54;;;;;;;11.10;6.28;;;11.60;51.90;;;;;;5058309;28;20068;-82
2022/03/09 11:56:27;;;;;;;9.05;5.38;;;11.80;52.00;;;;;;5059307;28;20049;-80
2022/03/09 11:59:12;;;;;;;9.55;6.00;;;11.80;51.00;;;;;;5057565;28;20056;-82
2022/03/09 12:02:06;;;;;;;9.80;6.00;;;11.90;49.60;;;;;;5039162;28;20045;-81
2022/03/09 12:04:50;;;;;;;14.43;6.97;;;11.90;49.50;;;;;;5061327;28;20045;-79
2022/03/09 12:07:28;;;;;;;10.50;5.85;;;12.00;50.40;;;;;;5048407;28;20040;-81
2022/03/09 12:09:57;;;;;;;11.80;6.55;;;12.00;48.10;;;;;;5055339;28;20102;-81
2022/03/09 12:12:25;;;;;;;14.73;6.60;;;12.10;50.40;;;;;;5065885;28;20045;-81
2022/03/09 12:15:14;;;;;;;12.18;6.63;;;12.10;50.90;;;;;;5059321;28;20072;-83
2022/03/09 12:17:44;;;;;;;10.80;6.38;;;12.30;49.60;;;;;;5059554;28;20059;-80
2022/03/09 12:20:30;;;;;;;14.05;6.97;;;12.40;50.20;;;;;;5060138;28;20080;-83
2022/03/09 12:22:56;;;;;;;10.75;6.32;;;12.40;48.50;;;;;;5055658;28;20452;-82
2022/03/09 12:25:38;;;;;;;11.95;7.15;;;12.30;49.60;;;;;;5056352;28;20056;-82
2022/03/09 12:28:25;;;;;;;11.98;6.82;;;12.40;47.20;;;;;;5040654;28;20041;-85
2022/03/09 12:31:17;;;;;;;12.15;6.90;;;12.40;48.20;;;;;;5058127;28;20045;-81
2022/03/09 12:33:46;;;;;;;11.35;6.75;;;12.40;49.00;;;;;;5056195;28;20384;-82
2022/03/09 12:36:15;;;;;;;9.70;5.53;;;12.40;49.50;;;;;;5055729;28;20130;-84
2022/03/09 12:38:53;;;;;;;10.75;6.43;;;12.40;49.40;;;;;;5066752;28;20093;-80
2022/03/09 12:41:24;;;;;;;10.68;6.22;;;12.40;48.50;;;;;;5055977;28;20113;-84
2022/03/09 12:43:51;;;;;;;11.32;6.38;;;12.40;49.60;;;;;;5055550;28;20095;-82
2022/03/09 12:46:17;;;;;;;14.68;6.45;;;12.50;49.10;;;;;;5059910;28;20049;-80
2022/03/09 12:48:44;;;;;;;12.23;7.45;;;12.60;48.70;;;;;;5042730;28;20079;-85